Time,TemperatureF,DewpointF,PressureIn,WindDirection,WindDirectionDegrees,WindSpeedMPH,WindSpeedGustMPH,Humidity,HourlyPrecipIn,Conditions,Clouds,dailyrainin,SoftwareType,DateUTC
2013-06-24 00:00:00,70.9,69.7,30.09,ESE,112,0.0,1.0,96,0.00,,,0.00,WeatherCatV1.11B39,2013-06-24 10:00:00,
2013-06-24 00:05:00,70.9,69.7,30.08,ESE,112,0.0,2.0,96,0.00,,,0.00,WeatherCatV1.11B39,2013-06-24 10:05:00,
2013-06-24 00:10:00,70.9,69.7,30.08,ESE,112,0.0,2.0,96,0.00,,,0.00,WeatherCatV1.11B39,2013-06-24 10:10:00,
2013-06-24 00:15:00,70.9,69.7,30.08,ESE,112,0.0,2.0,96,0.00,,,0.00,WeatherCatV1.11B39,2013-06-24 10:15:00,
2013-06-24 00:20:00,70.9,69.7,30.08,ESE,112,0.0,2.0,96,0.00,,,0.00,WeatherCatV1.11B39,2013-06-24 10:20:00,
2013-06-24 00:25:00,70.9,69.7,30.08,ESE,112,0.0,2.0,96,0.00,,,0.00,WeatherCatV1.11B39,2013-06-24 10:25:00,
2013-06-24 00:30:00,70.9,69.7,30.08,ESE,112,0.0,2.0,96,0.00,,,0.00,WeatherCatV1.11B39,2013-06-24 10:30:00,
2013-06-24 00:35:00,70.9,69.7,30.08,SSW,202,0.0,1.0,96,0.00,,,0.00,WeatherCatV1.11B39,2013-06-24 10:35:00,
2013-06-24 00:40:00,70.9,69.7,30.08,SSW,202,0.0,1.0,96,0.00,,,0.00,WeatherCatV1.11B39,2013-06-24 10:40:00,
2013-06-24 00:45:00,70.9,69.7,30.08,SSW,202,0.0,1.0,96,0.00,,,0.00,WeatherCatV1.11B39,2013-06-24 10:45:00,
2013-06-24 00:50:00,70.9,69.7,30.08,SSW,202,0.0,1.0,96,0.00,,,0.00,WeatherCatV1.11B39,2013-06-24 10:50:00,
2013-06-24 00:55:00,70.9,69.7,30.08,SSW,202,0.0,1.0,96,0.00,,,0.00,WeatherCatV1.11B39,2013-06-24 10:55:00,
2013-06-24 01:00:00,70.9,69.7,30.08,SSW,202,0.0,1.0,96,0.00,,,0.00,WeatherCatV1.11B39,2013-06-24 11:00:00,
2013-06-24 01:05:00,71.1,69.9,30.07,ESE,112,0.0,4.0,96,0.46,,,0.00,WeatherCatV1.11B39,2013-06-24 11:05:00,
2013-06-24 01:10:00,71.1,69.9,30.07,ESE,112,0.0,4.0,96,0.46,,,0.00,WeatherCatV1.11B39,2013-06-24 11:10:00,
2013-06-24 01:15:00,71.1,69.9,30.07,ESE,112,0.0,4.0,96,0.46,,,0.00,WeatherCatV1.11B39,2013-06-24 11:15:00,
2013-06-24 01:20:00,71.1,69.9,30.07,ESE,112,0.0,4.0,96,0.46,,,0.00,WeatherCatV1.11B39,2013-06-24 11:20:00,
2013-06-24 01:25:00,71.1,69.9,30.07,ESE,112,0.0,4.0,96,0.46,,,0.00,WeatherCatV1.11B39,2013-06-24 11:25:00,
2013-06-24 01:30:00,71.1,69.9,30.07,ESE,112,0.0,4.0,96,0.46,,,0.00,WeatherCatV1.11B39,2013-06-24 11:30:00,
2013-06-24 01:35:00,70.7,69.5,30.07,ESE,112,0.0,2.0,96,0.00,,,0.00,WeatherCatV1.11B39,2013-06-24 11:35:00,
2013-06-24 01:40:00,70.7,69.5,30.07,ESE,112,0.0,2.0,96,0.00,,,0.00,WeatherCatV1.11B39,2013-06-24 11:40:00,
2013-06-24 01:45:00,70.7,69.5,30.07,ESE,112,0.0,2.0,96,0.00,,,0.00,WeatherCatV1.11B39,2013-06-24 11:45:00,
2013-06-24 01:50:00,70.7,69.5,30.07,ESE,112,0.0,2.0,96,0.00,,,0.00,WeatherCatV1.11B39,2013-06-24 11:50:00,
2013-06-24 01:55:00,70.7,69.5,30.07,ESE,112,0.0,2.0,96,0.00,,,0.00,WeatherCatV1.11B39,2013-06-24 11:55:00,
2013-06-24 02:00:00,70.7,69.5,30.07,ESE,112,0.0,2.0,96,0.00,,,0.00,WeatherCatV1.11B39,2013-06-24 12:00:00,
2013-06-24 02:05:00,70.9,69.7,30.06,East,90,0.0,3.0,96,0.00,,,0.00,WeatherCatV1.11B39,2013-06-24 12:05:00,
2013-06-24 02:10:00,70.9,69.7,30.06,East,90,0.0,3.0,96,0.00,,,0.00,WeatherCatV1.11B39,2013-06-24 12:10:00,
2013-06-24 02:15:00,70.9,69.7,30.06,East,90,0.0,3.0,96,0.00,,,0.00,WeatherCatV1.11B39,2013-06-24 12:15:00,
2013-06-24 02:20:00,70.9,69.7,30.06,East,90,0.0,3.0,96,0.00,,,0.00,WeatherCatV1.11B39,2013-06-24 12:20:00,
2013-06-24 02:25:00,70.9,69.7,30.06,East,90,0.0,3.0,96,0.00,,,0.00,WeatherCatV1.11B39,2013-06-24 12:25:00,
2013-06-24 02:30:00,70.9,69.7,30.06,East,90,0.0,3.0,96,0.00,,,0.00,WeatherCatV1.11B39,2013-06-24 12:30:00,
2013-06-24 02:35:00,70.5,69.0,30.05,East,90,0.0,0.0,95,0.00,,,0.00,WeatherCatV1.11B39,2013-06-24 12:35:00,
2013-06-24 02:40:00,70.5,69.0,30.05,East,90,0.0,0.0,95,0.00,,,0.00,WeatherCatV1.11B39,2013-06-24 12:40:00,
2013-06-24 02:45:00,70.5,69.0,30.05,East,90,0.0,0.0,95,0.00,,,0.00,WeatherCatV1.11B39,2013-06-24 12:45:00,
2013-06-24 02:50:00,70.5,69.0,30.05,East,90,0.0,0.0,95,0.00,,,0.00,WeatherCatV1.11B39,2013-06-24 12:50:00,
2013-06-24 02:55:00,70.5,69.0,30.05,East,90,0.0,0.0,95,0.00,,,0.00,WeatherCatV1.11B39,2013-06-24 12:55:00,
2013-06-24 03:00:00,70.5,69.0,30.05,East,90,0.0,0.0,95,0.00,,,0.00,WeatherCatV1.11B39,2013-06-24 13:00:00,
2013-06-24 03:05:00,70.7,69.5,30.05,East,90,0.0,3.0,96,2.07,,,0.00,WeatherCatV1.11B39,2013-06-24 13:05:00,
2013-06-24 03:10:00,70.7,69.5,30.05,East,90,0.0,3.0,96,2.07,,,0.00,WeatherCatV1.11B39,2013-06-24 13:10:00,
2013-06-24 03:15:00,70.7,69.5,30.05,East,90,0.0,3.0,96,2.07,,,0.00,WeatherCatV1.11B39,2013-06-24 13:15:00,
2013-06-24 03:20:00,70.7,69.5,30.05,East,90,0.0,3.0,96,2.07,,,0.00,WeatherCatV1.11B39,2013-06-24 13:20:00,
2013-06-24 03:25:00,70.7,69.5,30.05,East,90,0.0,3.0,96,2.07,,,0.00,WeatherCatV1.11B39,2013-06-24 13:25:00,
2013-06-24 03:30:00,70.7,69.5,30.05,East,90,0.0,3.0,96,2.07,,,0.00,WeatherCatV1.11B39,2013-06-24 13:30:00,
2013-06-24 03:35:00,70.4,68.9,30.04,East,90,0.0,3.0,95,0.00,,,0.00,WeatherCatV1.11B39,2013-06-24 13:35:00,
2013-06-24 03:40:00,70.4,68.9,30.04,East,90,0.0,3.0,95,0.00,,,0.00,WeatherCatV1.11B39,2013-06-24 13:40:00,
2013-06-24 03:45:00,70.4,68.9,30.04,East,90,0.0,3.0,95,0.00,,,0.00,WeatherCatV1.11B39,2013-06-24 13:45:00,
2013-06-24 03:50:00,70.4,68.9,30.04,East,90,0.0,3.0,95,0.00,,,0.00,WeatherCatV1.11B39,2013-06-24 13:50:00,
2013-06-24 03:55:00,70.4,68.9,30.04,East,90,0.0,3.0,95,0.00,,,0.00,WeatherCatV1.11B39,2013-06-24 13:55:00,
2013-06-24 04:00:00,70.4,68.9,30.04,East,90,0.0,3.0,95,0.00,,,0.00,WeatherCatV1.11B39,2013-06-24 14:00:00,
2013-06-24 04:05:00,69.7,68.2,30.05,East,90,0.0,0.0,95,0.00,,,0.00,WeatherCatV1.11B39,2013-06-24 14:05:00,
2013-06-24 04:10:00,69.7,68.2,30.05,East,90,0.0,0.0,95,0.00,,,0.00,WeatherCatV1.11B39,2013-06-24 14:10:00,
2013-06-24 04:15:00,69.7,68.2,30.05,East,90,0.0,0.0,95,0.00,,,0.00,WeatherCatV1.11B39,2013-06-24 14:15:00,
2013-06-24 04:20:00,69.7,68.2,30.05,East,90,0.0,0.0,95,0.00,,,0.00,WeatherCatV1.11B39,2013-06-24 14:20:00,
2013-06-24 04:25:00,69.7,68.2,30.05,East,90,0.0,0.0,95,0.00,,,0.00,WeatherCatV1.11B39,2013-06-24 14:25:00,
2013-06-24 04:30:00,69.7,68.2,30.05,East,90,0.0,0.0,95,0.00,,,0.00,WeatherCatV1.11B39,2013-06-24 14:30:00,
2013-06-24 04:35:00,69.8,68.9,30.04,East,90,0.0,0.0,97,0.00,,,0.00,WeatherCatV1.11B39,2013-06-24 14:35:00,
2013-06-24 04:40:00,69.8,68.9,30.04,East,90,0.0,0.0,97,0.00,,,0.00,WeatherCatV1.11B39,2013-06-24 14:40:00,
2013-06-24 04:45:00,69.8,68.9,30.04,East,90,0.0,0.0,97,0.00,,,0.00,WeatherCatV1.11B39,2013-06-24 14:45:00,
2013-06-24 04:50:00,69.8,68.9,30.04,East,90,0.0,0.0,97,0.00,,,0.00,WeatherCatV1.11B39,2013-06-24 14:50:00,
2013-06-24 04:55:00,69.8,68.9,30.04,East,90,0.0,0.0,97,0.00,,,0.00,WeatherCatV1.11B39,2013-06-24 14:55:00,
2013-06-24 05:00:00,69.8,68.9,30.04,East,90,0.0,0.0,97,0.00,,,0.00,WeatherCatV1.11B39,2013-06-24 15:00:00,
2013-06-24 05:05:00,69.9,69.0,30.04,East,90,0.0,2.0,97,0.00,,,0.00,WeatherCatV1.11B39,2013-06-24 15:05:00,
2013-06-24 05:10:00,69.9,69.0,30.04,East,90,0.0,2.0,97,0.00,,,0.00,WeatherCatV1.11B39,2013-06-24 15:10:00,
2013-06-24 05:15:00,69.9,69.0,30.04,East,90,0.0,2.0,97,0.00,,,0.00,WeatherCatV1.11B39,2013-06-24 15:15:00,
2013-06-24 05:20:00,69.9,69.0,30.04,East,90,0.0,2.0,97,0.00,,,0.00,WeatherCatV1.11B39,2013-06-24 15:20:00,
2013-06-24 05:25:00,69.9,69.0,30.04,East,90,0.0,2.0,97,0.00,,,0.00,WeatherCatV1.11B39,2013-06-24 15:25:00,
2013-06-24 05:30:00,69.9,69.0,30.04,East,90,0.0,2.0,97,0.00,,,0.00,WeatherCatV1.11B39,2013-06-24 15:30:00,
2013-06-24 05:35:00,69.8,68.9,30.05,East,90,0.0,0.0,97,0.70,,,0.00,WeatherCatV1.11B39,2013-06-24 15:35:00,
2013-06-24 05:40:00,69.8,68.9,30.05,East,90,0.0,0.0,97,0.70,,,0.00,WeatherCatV1.11B39,2013-06-24 15:40:00,
2013-06-24 05:45:00,69.8,68.9,30.05,East,90,0.0,0.0,97,0.70,,,0.00,WeatherCatV1.11B39,2013-06-24 15:45:00,
2013-06-24 05:50:00,69.8,68.9,30.05,East,90,0.0,0.0,97,0.70,,,0.00,WeatherCatV1.11B39,2013-06-24 15:50:00,
2013-06-24 05:55:00,69.8,68.9,30.05,East,90,0.0,0.0,97,0.70,,,0.00,WeatherCatV1.11B39,2013-06-24 15:55:00,
2013-06-24 06:00:00,69.8,68.9,30.05,East,90,0.0,0.0,97,0.70,,,0.00,WeatherCatV1.11B39,2013-06-24 16:00:00,
2013-06-24 06:05:00,69.2,68.3,30.06,ESE,112,0.0,1.0,97,0.00,,,0.00,WeatherCatV1.11B39,2013-06-24 16:05:00,
2013-06-24 06:10:00,69.2,68.3,30.06,ESE,112,0.0,1.0,97,0.00,,,0.00,WeatherCatV1.11B39,2013-06-24 16:10:00,
2013-06-24 06:15:00,69.2,68.3,30.06,ESE,112,0.0,1.0,97,0.00,,,0.00,WeatherCatV1.11B39,2013-06-24 16:15:00,
2013-06-24 06:20:00,69.2,68.3,30.06,ESE,112,0.0,1.0,97,0.00,,,0.00,WeatherCatV1.11B39,2013-06-24 16:20:00,
2013-06-24 06:25:00,69.2,68.3,30.06,ESE,112,0.0,1.0,97,0.00,,,0.00,WeatherCatV1.11B39,2013-06-24 16:25:00,
2013-06-24 06:30:00,69.2,68.3,30.06,ESE,112,0.0,1.0,97,0.00,,,0.00,WeatherCatV1.11B39,2013-06-24 16:30:00,
2013-06-24 06:35:00,69.3,68.4,30.07,ESE,112,0.0,5.0,97,0.10,,,0.00,WeatherCatV1.11B39,2013-06-24 16:35:00,
2013-06-24 06:40:00,69.3,68.4,30.07,ESE,112,0.0,5.0,97,0.10,,,0.00,WeatherCatV1.11B39,2013-06-24 16:40:00,
2013-06-24 06:45:00,69.3,68.4,30.07,ESE,112,0.0,5.0,97,0.10,,,0.00,WeatherCatV1.11B39,2013-06-24 16:45:00,
2013-06-24 06:50:00,69.3,68.4,30.07,ESE,112,0.0,5.0,97,0.10,,,0.00,WeatherCatV1.11B39,2013-06-24 16:50:00,
2013-06-24 06:55:00,69.3,68.4,30.07,ESE,112,0.0,5.0,97,0.10,,,0.00,WeatherCatV1.11B39,2013-06-24 16:55:00,
2013-06-24 07:00:00,69.3,68.4,30.07,ESE,112,0.0,5.0,97,0.10,,,0.00,WeatherCatV1.11B39,2013-06-24 17:00:00,
2013-06-24 07:05:00,68.9,68.0,30.08,East,90,1.0,6.0,97,0.00,,,0.00,WeatherCatV1.11B39,2013-06-24 17:05:00,
2013-06-24 07:10:00,68.9,68.0,30.08,East,90,1.0,6.0,97,0.00,,,0.00,WeatherCatV1.11B39,2013-06-24 17:10:00,
2013-06-24 07:15:00,68.9,68.0,30.08,East,90,1.0,6.0,97,0.00,,,0.00,WeatherCatV1.11B39,2013-06-24 17:15:00,
2013-06-24 07:20:00,68.9,68.0,30.08,East,90,1.0,6.0,97,0.00,,,0.00,WeatherCatV1.11B39,2013-06-24 17:20:00,
2013-06-24 07:25:00,68.9,68.0,30.08,East,90,1.0,6.0,97,0.00,,,0.00,WeatherCatV1.11B39,2013-06-24 17:25:00,
2013-06-24 07:30:00,68.9,68.0,30.08,East,90,1.0,6.0,97,0.00,,,0.00,WeatherCatV1.11B39,2013-06-24 17:30:00,
2013-06-24 07:35:00,69.7,68.8,30.07,SW,225,0.0,2.0,97,0.00,,,0.00,WeatherCatV1.11B39,2013-06-24 17:35:00,
2013-06-24 07:40:00,69.7,68.8,30.07,SW,225,0.0,2.0,97,0.00,,,0.00,WeatherCatV1.11B39,2013-06-24 17:40:00,
2013-06-24 07:45:00,69.7,68.8,30.07,SW,225,0.0,2.0,97,0.00,,,0.00,WeatherCatV1.11B39,2013-06-24 17:45:00,
2013-06-24 07:50:00,69.7,68.8,30.07,SW,225,0.0,2.0,97,0.00,,,0.00,WeatherCatV1.11B39,2013-06-24 17:50:00,
2013-06-24 07:55:00,69.7,68.8,30.07,SW,225,0.0,2.0,97,0.00,,,0.00,WeatherCatV1.11B39,2013-06-24 17:55:00,
2013-06-24 08:00:00,69.7,68.8,30.07,SW,225,0.0,2.0,97,0.00,,,0.00,WeatherCatV1.11B39,2013-06-24 18:00:00,
2013-06-24 08:05:00,71.2,70.3,30.08,SW,225,0.0,0.0,97,0.15,,,0.00,WeatherCatV1.11B39,2013-06-24 18:05:00,
2013-06-24 08:10:00,71.2,70.3,30.08,SW,225,0.0,0.0,97,0.15,,,0.00,WeatherCatV1.11B39,2013-06-24 18:10:00,
2013-06-24 08:15:00,71.2,70.3,30.08,SW,225,0.0,0.0,97,0.15,,,0.00,WeatherCatV1.11B39,2013-06-24 18:15:00,
2013-06-24 08:20:00,71.2,70.3,30.08,SW,225,0.0,0.0,97,0.15,,,0.00,WeatherCatV1.11B39,2013-06-24 18:20:00,
2013-06-24 08:25:00,71.2,70.3,30.08,SW,225,0.0,0.0,97,0.15,,,0.00,WeatherCatV1.11B39,2013-06-24 18:25:00,
2013-06-24 08:30:00,71.2,70.3,30.08,SW,225,0.0,0.0,97,0.15,,,0.00,WeatherCatV1.11B39,2013-06-24 18:30:00,
2013-06-24 08:35:00,73.6,71.8,30.07,SW,225,0.0,0.0,94,0.00,,,0.00,WeatherCatV1.11B39,2013-06-24 18:35:00,
2013-06-24 08:40:00,73.6,71.8,30.07,SW,225,0.0,0.0,94,0.00,,,0.00,WeatherCatV1.11B39,2013-06-24 18:40:00,
2013-06-24 08:45:00,73.6,71.8,30.07,SW,225,0.0,0.0,94,0.00,,,0.00,WeatherCatV1.11B39,2013-06-24 18:45:00,
2013-06-24 08:50:00,73.6,71.8,30.07,SW,225,0.0,0.0,94,0.00,,,0.00,WeatherCatV1.11B39,2013-06-24 18:50:00,
2013-06-24 08:55:00,73.6,71.8,30.07,SW,225,0.0,0.0,94,0.00,,,0.00,WeatherCatV1.11B39,2013-06-24 18:55:00,
2013-06-24 09:00:00,73.6,71.8,30.07,SW,225,0.0,0.0,94,0.00,,,0.00,WeatherCatV1.11B39,2013-06-24 19:00:00,
2013-06-24 09:05:00,75.5,71.0,30.07,NE,45,2.0,10.0,86,0.00,,,0.00,WeatherCatV1.11B39,2013-06-24 19:05:00,
2013-06-24 09:10:00,75.5,71.0,30.07,NE,45,2.0,10.0,86,0.00,,,0.00,WeatherCatV1.11B39,2013-06-24 19:10:00,
2013-06-24 09:15:00,75.5,71.0,30.07,NE,45,2.0,10.0,86,0.00,,,0.00,WeatherCatV1.11B39,2013-06-24 19:15:00,
2013-06-24 09:20:00,75.5,71.0,30.07,NE,45,2.0,10.0,86,0.00,,,0.00,WeatherCatV1.11B39,2013-06-24 19:20:00,
2013-06-24 09:25:00,75.5,71.0,30.07,NE,45,2.0,10.0,86,0.00,,,0.00,WeatherCatV1.11B39,2013-06-24 19:25:00,
2013-06-24 09:30:00,75.5,71.0,30.07,NE,45,2.0,10.0,86,0.00,,,0.00,WeatherCatV1.11B39,2013-06-24 19:30:00,
2013-06-24 09:35:00,75.7,70.2,30.07,NE,45,2.0,7.0,83,0.00,,,0.00,WeatherCatV1.11B39,2013-06-24 19:35:00,
2013-06-24 09:40:00,75.7,70.2,30.07,NE,45,2.0,7.0,83,0.00,,,0.00,WeatherCatV1.11B39,2013-06-24 19:40:00,
2013-06-24 09:45:00,75.7,70.2,30.07,NE,45,2.0,7.0,83,0.00,,,0.00,WeatherCatV1.11B39,2013-06-24 19:45:00,
2013-06-24 09:50:00,75.7,70.2,30.07,NE,45,2.0,7.0,83,0.00,,,0.00,WeatherCatV1.11B39,2013-06-24 19:50:00,
2013-06-24 09:55:00,75.7,70.2,30.07,NE,45,2.0,7.0,83,0.00,,,0.00,WeatherCatV1.11B39,2013-06-24 19:55:00,
2013-06-24 10:00:00,75.7,70.2,30.07,NE,45,2.0,7.0,83,0.00,,,0.00,WeatherCatV1.11B39,2013-06-24 20:00:00,
2013-06-24 10:05:00,77.3,71.0,30.07,East,90,3.0,10.0,81,0.00,,,0.00,WeatherCatV1.11B39,2013-06-24 20:05:00,
2013-06-24 10:10:00,77.3,71.0,30.07,East,90,3.0,10.0,81,0.00,,,0.00,WeatherCatV1.11B39,2013-06-24 20:10:00,
2013-06-24 10:15:00,77.3,71.0,30.07,East,90,3.0,10.0,81,0.00,,,0.00,WeatherCatV1.11B39,2013-06-24 20:15:00,
2013-06-24 10:20:00,77.3,71.0,30.07,East,90,3.0,10.0,81,0.00,,,0.00,WeatherCatV1.11B39,2013-06-24 20:20:00,
2013-06-24 10:25:00,77.3,71.0,30.07,East,90,3.0,10.0,81,0.00,,,0.00,WeatherCatV1.11B39,2013-06-24 20:25:00,
2013-06-24 10:30:00,77.3,71.0,30.07,East,90,3.0,10.0,81,0.00,,,0.00,WeatherCatV1.11B39,2013-06-24 20:30:00,
2013-06-24 10:35:00,73.7,70.2,30.07,ENE,68,4.0,13.0,89,0.00,,,0.00,WeatherCatV1.11B39,2013-06-24 20:35:00,
2013-06-24 10:40:00,73.7,70.2,30.07,ENE,68,4.0,13.0,89,0.00,,,0.00,WeatherCatV1.11B39,2013-06-24 20:40:00,
2013-06-24 10:45:00,73.7,70.2,30.07,ENE,68,4.0,13.0,89,0.00,,,0.00,WeatherCatV1.11B39,2013-06-24 20:45:00,
2013-06-24 10:50:00,73.7,70.2,30.07,ENE,68,4.0,13.0,89,0.00,,,0.00,WeatherCatV1.11B39,2013-06-24 20:50:00,
2013-06-24 10:55:00,73.7,70.2,30.07,ENE,68,4.0,13.0,89,0.00,,,0.00,WeatherCatV1.11B39,2013-06-24 20:55:00,
2013-06-24 11:00:00,73.7,70.2,30.07,ENE,68,4.0,13.0,89,0.00,,,0.00,WeatherCatV1.11B39,2013-06-24 21:00:00,
2013-06-24 11:05:00,75.9,71.7,30.07,East,90,2.0,7.0,87,0.00,,,0.00,WeatherCatV1.11B39,2013-06-24 21:05:00,
2013-06-24 11:10:00,75.9,71.7,30.07,East,90,2.0,7.0,87,0.00,,,0.00,WeatherCatV1.11B39,2013-06-24 21:10:00,
2013-06-24 11:15:00,75.9,71.7,30.07,East,90,2.0,7.0,87,0.00,,,0.00,WeatherCatV1.11B39,2013-06-24 21:15:00,
2013-06-24 11:20:00,75.9,71.7,30.07,East,90,2.0,7.0,87,0.00,,,0.00,WeatherCatV1.11B39,2013-06-24 21:20:00,
2013-06-24 11:25:00,75.9,71.7,30.07,East,90,2.0,7.0,87,0.00,,,0.00,WeatherCatV1.11B39,2013-06-24 21:25:00,
2013-06-24 11:30:00,75.9,71.7,30.07,East,90,2.0,7.0,87,0.00,,,0.00,WeatherCatV1.11B39,2013-06-24 21:30:00,
2013-06-24 11:35:00,75.9,71.4,30.06,East,90,2.0,12.0,86,0.00,,,0.00,WeatherCatV1.11B39,2013-06-24 21:35:00,
2013-06-24 11:40:00,75.9,71.4,30.06,East,90,2.0,12.0,86,0.00,,,0.00,WeatherCatV1.11B39,2013-06-24 21:40:00,
2013-06-24 11:45:00,75.9,71.4,30.06,East,90,2.0,12.0,86,0.00,,,0.00,WeatherCatV1.11B39,2013-06-24 21:45:00,
2013-06-24 11:50:00,75.9,71.4,30.06,East,90,2.0,12.0,86,0.00,,,0.00,WeatherCatV1.11B39,2013-06-24 21:50:00,
2013-06-24 11:55:00,75.9,71.4,30.06,East,90,2.0,12.0,86,0.00,,,0.00,WeatherCatV1.11B39,2013-06-24 21:55:00,
2013-06-24 12:00:00,75.9,71.4,30.06,East,90,2.0,12.0,86,0.00,,,0.00,WeatherCatV1.11B39,2013-06-24 22:00:00,
2013-06-24 12:05:00,77.9,71.2,30.06,East,90,3.0,12.0,80,0.00,,,0.00,WeatherCatV1.11B39,2013-06-24 22:05:00,
2013-06-24 12:10:00,77.9,71.2,30.06,East,90,3.0,12.0,80,0.00,,,0.00,WeatherCatV1.11B39,2013-06-24 22:10:00,
2013-06-24 12:15:00,77.9,71.2,30.06,East,90,3.0,12.0,80,0.00,,,0.00,WeatherCatV1.11B39,2013-06-24 22:15:00,
2013-06-24 12:20:00,77.9,71.2,30.06,East,90,3.0,12.0,80,0.00,,,0.00,WeatherCatV1.11B39,2013-06-24 22:20:00,
2013-06-24 12:25:00,77.9,71.2,30.06,East,90,3.0,12.0,80,0.00,,,0.00,WeatherCatV1.11B39,2013-06-24 22:25:00,
2013-06-24 12:30:00,77.9,71.2,30.06,East,90,3.0,12.0,80,0.00,,,0.00,WeatherCatV1.11B39,2013-06-24 22:30:00,
2013-06-24 12:35:00,78.0,70.9,30.06,East,90,4.0,12.0,79,0.00,,,0.00,WeatherCatV1.11B39,2013-06-24 22:35:00,
2013-06-24 12:40:00,78.0,70.9,30.06,East,90,4.0,12.0,79,0.00,,,0.00,WeatherCatV1.11B39,2013-06-24 22:40:00,
2013-06-24 12:45:00,78.0,70.9,30.06,East,90,4.0,12.0,79,0.00,,,0.00,WeatherCatV1.11B39,2013-06-24 22:45:00,
2013-06-24 12:50:00,78.0,70.9,30.06,East,90,4.0,12.0,79,0.00,,,0.00,WeatherCatV1.11B39,2013-06-24 22:50:00,
2013-06-24 12:55:00,78.0,70.9,30.06,East,90,4.0,12.0,79,0.00,,,0.00,WeatherCatV1.11B39,2013-06-24 22:55:00,
2013-06-24 13:00:00,78.0,70.9,30.06,East,90,4.0,12.0,79,0.00,,,0.00,WeatherCatV1.11B39,2013-06-24 23:00:00,
2013-06-24 13:05:00,77.9,70.8,30.05,ENE,68,3.0,13.0,79,0.00,,,0.00,WeatherCatV1.11B39,2013-06-24 23:05:00,
2013-06-24 13:10:00,77.9,70.8,30.05,ENE,68,3.0,13.0,79,0.00,,,0.00,WeatherCatV1.11B39,2013-06-24 23:10:00,
2013-06-24 13:15:00,77.9,70.8,30.05,ENE,68,3.0,13.0,79,0.00,,,0.00,WeatherCatV1.11B39,2013-06-24 23:15:00,
2013-06-24 13:20:00,77.9,70.8,30.05,ENE,68,3.0,13.0,79,0.00,,,0.00,WeatherCatV1.11B39,2013-06-24 23:20:00,
2013-06-24 13:25:00,77.9,70.8,30.05,ENE,68,3.0,13.0,79,0.00,,,0.00,WeatherCatV1.11B39,2013-06-24 23:25:00,
2013-06-24 13:30:00,77.9,70.8,30.05,ENE,68,3.0,13.0,79,0.00,,,0.00,WeatherCatV1.11B39,2013-06-24 23:30:00,
2013-06-24 13:35:00,78.0,70.2,30.05,East,90,3.0,10.0,77,0.00,,,0.00,WeatherCatV1.11B39,2013-06-24 23:35:00,
2013-06-24 13:40:00,78.0,70.2,30.05,East,90,3.0,10.0,77,0.00,,,0.00,WeatherCatV1.11B39,2013-06-24 23:40:00,
2013-06-24 13:45:00,78.0,70.2,30.05,East,90,3.0,10.0,77,0.00,,,0.00,WeatherCatV1.11B39,2013-06-24 23:45:00,
2013-06-24 13:50:00,78.0,70.2,30.05,East,90,3.0,10.0,77,0.00,,,0.00,WeatherCatV1.11B39,2013-06-24 23:50:00,
2013-06-24 13:55:00,78.0,70.2,30.05,East,90,3.0,10.0,77,0.00,,,0.00,WeatherCatV1.11B39,2013-06-24 23:55:00,
2013-06-24 14:00:00,78.0,70.2,30.05,East,90,3.0,10.0,77,0.00,,,0.00,WeatherCatV1.11B39,2013-06-25 00:00:00,
2013-06-24 14:05:00,79.8,69.9,30.05,East,90,3.0,11.0,72,0.00,,,0.00,WeatherCatV1.11B39,2013-06-25 00:05:00,
2013-06-24 14:10:00,79.8,69.9,30.05,East,90,3.0,11.0,72,0.00,,,0.00,WeatherCatV1.11B39,2013-06-25 00:10:00,
2013-06-24 14:15:00,79.8,69.9,30.05,East,90,3.0,11.0,72,0.00,,,0.00,WeatherCatV1.11B39,2013-06-25 00:15:00,
2013-06-24 14:20:00,79.8,69.9,30.05,East,90,3.0,11.0,72,0.00,,,0.00,WeatherCatV1.11B39,2013-06-25 00:20:00,
2013-06-24 14:25:00,79.8,69.9,30.05,East,90,3.0,11.0,72,0.00,,,0.00,WeatherCatV1.11B39,2013-06-25 00:25:00,
2013-06-24 14:30:00,79.8,69.9,30.05,East,90,3.0,11.0,72,0.00,,,0.00,WeatherCatV1.11B39,2013-06-25 00:30:00,
2013-06-24 14:35:00,78.9,67.4,30.04,East,90,3.0,10.0,68,0.00,,,0.00,WeatherCatV1.11B39,2013-06-25 00:35:00,
2013-06-24 14:40:00,78.9,67.4,30.04,East,90,3.0,10.0,68,0.00,,,0.00,WeatherCatV1.11B39,2013-06-25 00:40:00,
2013-06-24 14:45:00,78.9,67.4,30.04,East,90,3.0,10.0,68,0.00,,,0.00,WeatherCatV1.11B39,2013-06-25 00:45:00,
2013-06-24 14:50:00,78.9,67.4,30.04,East,90,3.0,10.0,68,0.00,,,0.00,WeatherCatV1.11B39,2013-06-25 00:50:00,
2013-06-24 14:55:00,78.9,67.4,30.04,East,90,3.0,10.0,68,0.00,,,0.00,WeatherCatV1.11B39,2013-06-25 00:55:00,
2013-06-24 15:00:00,78.9,67.4,30.04,East,90,3.0,10.0,68,0.00,,,0.00,WeatherCatV1.11B39,2013-06-25 01:00:00,
2013-06-24 15:05:00,79.3,70.3,30.04,East,90,3.0,9.0,74,0.00,,,0.00,WeatherCatV1.11B39,2013-06-25 01:05:00,
2013-06-24 15:10:00,79.3,70.3,30.04,East,90,3.0,9.0,74,0.00,,,0.00,WeatherCatV1.11B39,2013-06-25 01:10:00,
2013-06-24 15:15:00,79.3,70.3,30.04,East,90,3.0,9.0,74,0.00,,,0.00,WeatherCatV1.11B39,2013-06-25 01:15:00,
2013-06-24 15:20:00,79.3,70.3,30.04,East,90,3.0,9.0,74,0.00,,,0.00,WeatherCatV1.11B39,2013-06-25 01:20:00,
2013-06-24 15:25:00,79.3,70.3,30.04,East,90,3.0,9.0,74,0.00,,,0.00,WeatherCatV1.11B39,2013-06-25 01:25:00,
2013-06-24 15:30:00,79.3,70.3,30.04,East,90,3.0,9.0,74,0.00,,,0.00,WeatherCatV1.11B39,2013-06-25 01:30:00,
2013-06-24 15:35:00,78.3,70.9,30.03,ENE,68,3.0,9.0,78,0.00,,,0.00,WeatherCatV1.11B39,2013-06-25 01:35:00,
2013-06-24 15:40:00,78.3,70.9,30.03,ENE,68,3.0,9.0,78,0.00,,,0.00,WeatherCatV1.11B39,2013-06-25 01:40:00,
2013-06-24 15:45:00,78.3,70.9,30.03,ENE,68,3.0,9.0,78,0.00,,,0.00,WeatherCatV1.11B39,2013-06-25 01:45:00,
2013-06-24 15:50:00,78.3,70.9,30.03,ENE,68,3.0,9.0,78,0.00,,,0.00,WeatherCatV1.11B39,2013-06-25 01:50:00,
2013-06-24 15:55:00,78.3,70.9,30.03,ENE,68,3.0,9.0,78,0.00,,,0.00,WeatherCatV1.11B39,2013-06-25 01:55:00,
2013-06-24 16:00:00,78.3,70.9,30.03,ENE,68,3.0,9.0,78,0.00,,,0.00,WeatherCatV1.11B39,2013-06-25 02:00:00,
2013-06-24 16:05:00,77.3,70.6,30.03,East,90,2.0,8.0,80,0.00,,,0.00,WeatherCatV1.11B39,2013-06-25 02:05:00,
2013-06-24 16:10:00,77.3,70.6,30.03,East,90,2.0,8.0,80,0.00,,,0.00,WeatherCatV1.11B39,2013-06-25 02:10:00,
2013-06-24 16:15:00,77.3,70.6,30.03,East,90,2.0,8.0,80,0.00,,,0.00,WeatherCatV1.11B39,2013-06-25 02:15:00,
2013-06-24 16:20:00,77.3,70.6,30.03,East,90,2.0,8.0,80,0.00,,,0.00,WeatherCatV1.11B39,2013-06-25 02:20:00,
2013-06-24 16:25:00,77.3,70.6,30.03,East,90,2.0,8.0,80,0.00,,,0.00,WeatherCatV1.11B39,2013-06-25 02:25:00,
2013-06-24 16:30:00,77.3,70.6,30.03,East,90,2.0,8.0,80,0.00,,,0.00,WeatherCatV1.11B39,2013-06-25 02:30:00,
2013-06-24 16:35:00,76.4,69.0,30.02,East,90,3.0,10.0,78,0.00,,,0.00,WeatherCatV1.11B39,2013-06-25 02:35:00,
2013-06-24 16:40:00,76.4,69.0,30.02,East,90,3.0,10.0,78,0.00,,,0.00,WeatherCatV1.11B39,2013-06-25 02:40:00,
2013-06-24 16:45:00,76.4,69.0,30.02,East,90,3.0,10.0,78,0.00,,,0.00,WeatherCatV1.11B39,2013-06-25 02:45:00,
2013-06-24 16:50:00,76.4,69.0,30.02,East,90,3.0,10.0,78,0.00,,,0.00,WeatherCatV1.11B39,2013-06-25 02:50:00,
2013-06-24 16:55:00,76.4,69.0,30.02,East,90,3.0,10.0,78,0.00,,,0.00,WeatherCatV1.11B39,2013-06-25 02:55:00,
2013-06-24 17:00:00,76.4,69.0,30.02,East,90,3.0,10.0,78,0.00,,,0.00,WeatherCatV1.11B39,2013-06-25 03:00:00,
2013-06-24 17:05:00,76.1,69.8,30.02,East,90,2.0,7.0,81,0.00,,,0.00,WeatherCatV1.11B39,2013-06-25 03:05:00,
2013-06-24 17:10:00,76.1,69.8,30.02,East,90,2.0,7.0,81,0.00,,,0.00,WeatherCatV1.11B39,2013-06-25 03:10:00,
2013-06-24 17:15:00,76.1,69.8,30.02,East,90,2.0,7.0,81,0.00,,,0.00,WeatherCatV1.11B39,2013-06-25 03:15:00,
2013-06-24 17:20:00,76.1,69.8,30.02,East,90,2.0,7.0,81,0.00,,,0.00,WeatherCatV1.11B39,2013-06-25 03:20:00,
2013-06-24 17:25:00,76.1,69.8,30.02,East,90,2.0,7.0,81,0.00,,,0.00,WeatherCatV1.11B39,2013-06-25 03:25:00,
2013-06-24 17:30:00,76.1,69.8,30.02,East,90,2.0,7.0,81,0.00,,,0.00,WeatherCatV1.11B39,2013-06-25 03:30:00,
2013-06-24 17:35:00,77.2,69.8,30.02,ENE,68,4.0,13.0,78,0.00,,,0.00,WeatherCatV1.11B39,2013-06-25 03:35:00,
2013-06-24 17:40:00,77.2,69.8,30.02,ENE,68,4.0,13.0,78,0.00,,,0.00,WeatherCatV1.11B39,2013-06-25 03:40:00,
2013-06-24 17:45:00,77.2,69.8,30.02,ENE,68,4.0,13.0,78,0.00,,,0.00,WeatherCatV1.11B39,2013-06-25 03:45:00,
2013-06-24 17:50:00,77.2,69.8,30.02,ENE,68,4.0,13.0,78,0.00,,,0.00,WeatherCatV1.11B39,2013-06-25 03:50:00,
2013-06-24 17:55:00,77.2,69.8,30.02,ENE,68,4.0,13.0,78,0.00,,,0.00,WeatherCatV1.11B39,2013-06-25 03:55:00,
2013-06-24 18:00:00,77.2,69.8,30.02,ENE,68,4.0,13.0,78,0.00,,,0.00,WeatherCatV1.11B39,2013-06-25 04:00:00,
2013-06-24 18:05:00,73.5,69.7,30.02,East,90,2.0,8.0,88,0.05,,,0.00,WeatherCatV1.11B39,2013-06-25 04:05:00,
2013-06-24 18:10:00,73.5,69.7,30.02,East,90,2.0,8.0,88,0.05,,,0.00,WeatherCatV1.11B39,2013-06-25 04:10:00,
2013-06-24 18:15:00,73.5,69.7,30.02,East,90,2.0,8.0,88,0.05,,,0.00,WeatherCatV1.11B39,2013-06-25 04:15:00,
2013-06-24 18:20:00,73.5,69.7,30.02,East,90,2.0,8.0,88,0.05,,,0.00,WeatherCatV1.11B39,2013-06-25 04:20:00,
2013-06-24 18:25:00,73.5,69.7,30.02,East,90,2.0,8.0,88,0.05,,,0.00,WeatherCatV1.11B39,2013-06-25 04:25:00,
2013-06-24 18:30:00,73.5,69.7,30.02,East,90,2.0,8.0,88,0.05,,,0.00,WeatherCatV1.11B39,2013-06-25 04:30:00,
2013-06-24 18:35:00,73.7,69.2,30.02,East,90,1.0,7.0,86,0.00,,,0.00,WeatherCatV1.11B39,2013-06-25 04:35:00,
2013-06-24 18:40:00,73.7,69.2,30.02,East,90,1.0,7.0,86,0.00,,,0.00,WeatherCatV1.11B39,2013-06-25 04:40:00,
2013-06-24 18:45:00,73.7,69.2,30.02,East,90,1.0,7.0,86,0.00,,,0.00,WeatherCatV1.11B39,2013-06-25 04:45:00,
2013-06-24 18:50:00,73.7,69.2,30.02,East,90,1.0,7.0,86,0.00,,,0.00,WeatherCatV1.11B39,2013-06-25 04:50:00,
2013-06-24 18:55:00,73.7,69.2,30.02,East,90,1.0,7.0,86,0.00,,,0.00,WeatherCatV1.11B39,2013-06-25 04:55:00,
2013-06-24 19:00:00,73.7,69.2,30.02,East,90,1.0,7.0,86,0.00,,,0.00,WeatherCatV1.11B39,2013-06-25 05:00:00,
2013-06-24 19:05:00,73.5,68.7,30.03,East,90,1.0,6.0,85,0.00,,,0.00,WeatherCatV1.11B39,2013-06-25 05:05:00,
2013-06-24 19:10:00,73.5,68.7,30.03,East,90,1.0,6.0,85,0.00,,,0.00,WeatherCatV1.11B39,2013-06-25 05:10:00,
2013-06-24 19:15:00,73.5,68.7,30.03,East,90,1.0,6.0,85,0.00,,,0.00,WeatherCatV1.11B39,2013-06-25 05:15:00,
2013-06-24 19:20:00,73.5,68.7,30.03,East,90,1.0,6.0,85,0.00,,,0.00,WeatherCatV1.11B39,2013-06-25 05:20:00,
2013-06-24 19:25:00,73.5,68.7,30.03,East,90,1.0,6.0,85,0.00,,,0.00,WeatherCatV1.11B39,2013-06-25 05:25:00,
2013-06-24 19:30:00,73.5,68.7,30.03,East,90,1.0,6.0,85,0.00,,,0.00,WeatherCatV1.11B39,2013-06-25 05:30:00,
2013-06-24 19:35:00,73.3,68.2,30.04,East,90,1.0,6.0,84,0.00,,,0.00,WeatherCatV1.11B39,2013-06-25 05:35:00,
2013-06-24 19:40:00,73.3,68.2,30.04,East,90,1.0,6.0,84,0.00,,,0.00,WeatherCatV1.11B39,2013-06-25 05:40:00,
2013-06-24 19:45:00,73.3,68.2,30.04,East,90,1.0,6.0,84,0.00,,,0.00,WeatherCatV1.11B39,2013-06-25 05:45:00,
2013-06-24 19:50:00,73.3,68.2,30.04,East,90,1.0,6.0,84,0.00,,,0.00,WeatherCatV1.11B39,2013-06-25 05:50:00,
2013-06-24 19:55:00,73.3,68.2,30.04,East,90,1.0,6.0,84,0.00,,,0.00,WeatherCatV1.11B39,2013-06-25 05:55:00,
2013-06-24 20:00:00,73.3,68.2,30.04,East,90,1.0,6.0,84,0.00,,,0.00,WeatherCatV1.11B39,2013-06-25 06:00:00,
2013-06-24 20:05:00,72.8,68.0,30.04,ESE,112,0.0,6.0,85,0.00,,,0.00,WeatherCatV1.11B39,2013-06-25 06:05:00,
2013-06-24 20:10:00,72.8,68.0,30.04,ESE,112,0.0,6.0,85,0.00,,,0.00,WeatherCatV1.11B39,2013-06-25 06:10:00,
2013-06-24 20:15:00,72.8,68.0,30.04,ESE,112,0.0,6.0,85,0.00,,,0.00,WeatherCatV1.11B39,2013-06-25 06:15:00,
2013-06-24 20:20:00,72.8,68.0,30.04,ESE,112,0.0,6.0,85,0.00,,,0.00,WeatherCatV1.11B39,2013-06-25 06:20:00,
2013-06-24 20:25:00,72.8,68.0,30.04,ESE,112,0.0,6.0,85,0.00,,,0.00,WeatherCatV1.11B39,2013-06-25 06:25:00,
2013-06-24 20:30:00,72.8,68.0,30.04,ESE,112,0.0,6.0,85,0.00,,,0.00,WeatherCatV1.11B39,2013-06-25 06:30:00,
2013-06-24 20:35:00,72.2,68.1,30.05,ESE,112,0.0,1.0,87,0.00,,,0.00,WeatherCatV1.11B39,2013-06-25 06:35:00,
2013-06-24 20:40:00,72.2,68.1,30.05,ESE,112,0.0,1.0,87,0.00,,,0.00,WeatherCatV1.11B39,2013-06-25 06:40:00,
2013-06-24 20:45:00,72.2,68.1,30.05,ESE,112,0.0,1.0,87,0.00,,,0.00,WeatherCatV1.11B39,2013-06-25 06:45:00,
2013-06-24 20:50:00,72.2,68.1,30.05,ESE,112,0.0,1.0,87,0.00,,,0.00,WeatherCatV1.11B39,2013-06-25 06:50:00,
2013-06-24 20:55:00,72.2,68.1,30.05,ESE,112,0.0,1.0,87,0.00,,,0.00,WeatherCatV1.11B39,2013-06-25 06:55:00,
2013-06-24 21:00:00,72.2,68.1,30.05,ESE,112,0.0,1.0,87,0.00,,,0.00,WeatherCatV1.11B39,2013-06-25 07:00:00,
2013-06-24 21:05:00,71.9,68.5,30.05,ESE,112,0.0,0.0,89,0.00,,,0.00,WeatherCatV1.11B39,2013-06-25 07:05:00,
2013-06-24 21:10:00,71.9,68.5,30.05,ESE,112,0.0,0.0,89,0.00,,,0.00,WeatherCatV1.11B39,2013-06-25 07:10:00,
2013-06-24 21:15:00,71.9,68.5,30.05,ESE,112,0.0,0.0,89,0.00,,,0.00,WeatherCatV1.11B39,2013-06-25 07:15:00,
2013-06-24 21:20:00,71.9,68.5,30.05,ESE,112,0.0,0.0,89,0.00,,,0.00,WeatherCatV1.11B39,2013-06-25 07:20:00,
2013-06-24 21:25:00,71.9,68.5,30.05,ESE,112,0.0,0.0,89,0.00,,,0.00,WeatherCatV1.11B39,2013-06-25 07:25:00,
2013-06-24 21:30:00,71.9,68.5,30.05,ESE,112,0.0,0.0,89,0.00,,,0.00,WeatherCatV1.11B39,2013-06-25 07:30:00,
2013-06-24 21:35:00,71.6,68.5,30.06,ESE,112,0.0,0.0,90,0.00,,,0.00,WeatherCatV1.11B39,2013-06-25 07:35:00,
2013-06-24 21:40:00,71.6,68.5,30.06,ESE,112,0.0,0.0,90,0.00,,,0.00,WeatherCatV1.11B39,2013-06-25 07:40:00,
2013-06-24 21:45:00,71.6,68.5,30.06,ESE,112,0.0,0.0,90,0.00,,,0.00,WeatherCatV1.11B39,2013-06-25 07:45:00,
2013-06-24 21:50:00,71.6,68.5,30.06,ESE,112,0.0,0.0,90,0.00,,,0.00,WeatherCatV1.11B39,2013-06-25 07:50:00,
2013-06-24 21:55:00,71.6,68.5,30.06,ESE,112,0.0,0.0,90,0.00,,,0.00,WeatherCatV1.11B39,2013-06-25 07:55:00,
2013-06-24 22:00:00,71.6,68.5,30.06,ESE,112,0.0,0.0,90,0.00,,,0.00,WeatherCatV1.11B39,2013-06-25 08:00:00,
2013-06-24 22:05:00,71.0,68.2,30.07,ESE,112,0.0,0.0,91,0.00,,,0.00,WeatherCatV1.11B39,2013-06-25 08:05:00,
2013-06-24 22:10:00,71.0,68.2,30.07,ESE,112,0.0,0.0,91,0.00,,,0.00,WeatherCatV1.11B39,2013-06-25 08:10:00,
2013-06-24 22:15:00,71.0,68.2,30.07,ESE,112,0.0,0.0,91,0.00,,,0.00,WeatherCatV1.11B39,2013-06-25 08:15:00,
2013-06-24 22:20:00,71.0,68.2,30.07,ESE,112,0.0,0.0,91,0.00,,,0.00,WeatherCatV1.11B39,2013-06-25 08:20:00,
2013-06-24 22:25:00,71.0,68.2,30.07,ESE,112,0.0,0.0,91,0.00,,,0.00,WeatherCatV1.11B39,2013-06-25 08:25:00,
2013-06-24 22:30:00,71.0,68.2,30.07,ESE,112,0.0,0.0,91,0.00,,,0.00,WeatherCatV1.11B39,2013-06-25 08:30:00,
2013-06-24 22:35:00,71.2,68.1,30.06,ESE,112,0.0,0.0,90,0.00,,,0.00,WeatherCatV1.11B39,2013-06-25 08:35:00,
2013-06-24 22:40:00,71.2,68.1,30.06,ESE,112,0.0,0.0,90,0.00,,,0.00,WeatherCatV1.11B39,2013-06-25 08:40:00,
2013-06-24 22:45:00,71.2,68.1,30.06,ESE,112,0.0,0.0,90,0.00,,,0.00,WeatherCatV1.11B39,2013-06-25 08:45:00,
2013-06-24 22:50:00,71.2,68.1,30.06,ESE,112,0.0,0.0,90,0.00,,,0.00,WeatherCatV1.11B39,2013-06-25 08:50:00,
2013-06-24 22:55:00,71.2,68.1,30.06,ESE,112,0.0,0.0,90,0.00,,,0.00,WeatherCatV1.11B39,2013-06-25 08:55:00,
2013-06-24 23:00:00,71.2,68.1,30.06,ESE,112,0.0,0.0,90,0.00,,,0.00,WeatherCatV1.11B39,2013-06-25 09:00:00,
2013-06-24 23:05:00,71.6,68.5,30.06,ESE,112,0.0,0.0,90,0.00,,,0.00,WeatherCatV1.11B39,2013-06-25 09:05:00,
2013-06-24 23:10:00,71.6,68.5,30.06,ESE,112,0.0,0.0,90,0.00,,,0.00,WeatherCatV1.11B39,2013-06-25 09:10:00,
2013-06-24 23:15:00,71.6,68.5,30.06,ESE,112,0.0,0.0,90,0.00,,,0.00,WeatherCatV1.11B39,2013-06-25 09:15:00,
2013-06-24 23:20:00,71.6,68.5,30.06,ESE,112,0.0,0.0,90,0.00,,,0.00,WeatherCatV1.11B39,2013-06-25 09:20:00,
2013-06-24 23:25:00,71.6,68.5,30.06,ESE,112,0.0,0.0,90,0.00,,,0.00,WeatherCatV1.11B39,2013-06-25 09:25:00,
2013-06-24 23:30:00,71.6,68.5,30.06,ESE,112,0.0,0.0,90,0.00,,,0.00,WeatherCatV1.11B39,2013-06-25 09:30:00,
2013-06-24 23:35:00,72.0,68.2,30.05,ESE,112,0.0,0.0,88,0.00,,,0.00,WeatherCatV1.11B39,2013-06-25 09:35:00,
2013-06-24 23:40:00,72.0,68.2,30.05,ESE,112,0.0,0.0,88,0.00,,,0.00,WeatherCatV1.11B39,2013-06-25 09:40:00,
2013-06-24 23:45:00,72.0,68.2,30.05,ESE,112,0.0,0.0,88,0.00,,,0.00,WeatherCatV1.11B39,2013-06-25 09:45:00,
2013-06-24 23:50:00,72.0,68.2,30.05,ESE,112,0.0,0.0,88,0.00,,,0.00,WeatherCatV1.11B39,2013-06-25 09:50:00,
2013-06-24 23:55:00,72.0,68.2,30.05,ESE,112,0.0,0.0,88,0.00,,,0.00,WeatherCatV1.11B39,2013-06-25 09:55:00,